Time;durP1;ratioP1;P1;durP2;ratioP2;P2;SDS_P1;SDS_P2;PMS_P1;PMS_P2;Temp;Humidity;BMP_temperature;BMP_pressure;BME280_temperature;BME280_humidity;BME280_pressure;Samples;Min_cycle;Max_cycle;Signal;HPM_P1;HPM_P2
2022/04/08 00:00:48;;;;;;;7.43;2.27;;;9.50;71.50;;;;;;5015574;28;20193;-87
2022/04/08 00:03:14;;;;;;;3.10;1.80;;;9.60;69.90;;;;;;5023044;28;20174;-87
2022/04/08 00:05:40;;;;;;;3.37;2.07;;;9.60;71.60;;;;;;5021842;28;20194;-88
2022/04/08 00:08:07;;;;;;;5.33;1.93;;;9.50;72.20;;;;;;5005677;28;20624;-88
2022/04/08 00:10:33;;;;;;;4.87;2.37;;;9.60;72.00;;;;;;5011680;28;20792;-87
2022/04/08 00:12:58;;;;;;;8.73;2.40;;;9.70;70.20;;;;;;5011420;28;20257;-88
2022/04/08 00:15:24;;;;;;;5.33;2.40;;;9.60;71.30;;;;;;5019363;28;20197;-88
2022/04/08 00:17:50;;;;;;;6.87;2.10;;;9.50;73.00;;;;;;5004395;28;20244;-88
2022/04/08 00:20:16;;;;;;;6.50;2.50;;;9.40;72.90;;;;;;5007573;28;20206;-88
2022/04/08 00:22:42;;;;;;;4.40;2.50;;;9.50;72.30;;;;;;5041296;28;20216;-87
2022/04/08 00:25:11;;;;;;;7.77;2.23;;;9.50;72.50;;;;;;5025791;28;20244;-88
2022/04/08 00:27:38;;;;;;;4.97;2.30;;;9.60;71.40;;;;;;5025603;28;20198;-87
2022/04/08 00:30:05;;;;;;;4.70;1.80;;;9.60;70.80;;;;;;5016471;28;20190;-87
2022/04/08 00:32:33;;;;;;;4.57;2.50;;;9.60;72.60;;;;;;5019261;28;20273;-87
2022/04/08 00:34:59;;;;;;;4.87;2.50;;;9.50;71.70;;;;;;5019590;28;20276;-87
2022/04/08 00:37:25;;;;;;;5.47;2.33;;;9.50;71.50;;;;;;5016182;28;20202;-88
2022/04/08 00:39:51;;;;;;;6.27;2.47;;;9.50;72.60;;;;;;5022033;28;20740;-88
2022/04/08 00:42:16;;;;;;;5.30;2.03;;;9.50;72.40;;;;;;5019752;28;20186;-87
2022/04/08 00:44:42;;;;;;;4.67;2.20;;;9.40;73.40;;;;;;5022815;28;20200;-87
2022/04/08 00:47:09;;;;;;;5.50;2.50;;;9.50;72.80;;;;;;5019521;28;20205;-85
2022/04/08 00:49:37;;;;;;;5.03;2.03;;;9.50;73.90;;;;;;5019774;28;20220;-87
2022/04/08 00:52:03;;;;;;;7.23;2.60;;;9.50;73.80;;;;;;5019258;28;20185;-87
2022/04/08 00:54:32;;;;;;;6.03;2.53;;;9.50;74.80;;;;;;5019744;28;20653;-88
2022/04/08 00:56:58;;;;;;;6.50;2.43;;;9.50;75.10;;;;;;5006075;28;20268;-87
2022/04/08 00:59:26;;;;;;;6.10;2.10;;;9.40;76.20;;;;;;5020025;28;20240;-87
2022/04/08 01:01:52;;;;;;;4.67;2.27;;;9.40;75.80;;;;;;5020667;28;20197;-87
2022/04/08 01:04:18;;;;;;;7.27;2.43;;;9.50;74.20;;;;;;5022898;28;20186;-87
2022/04/08 01:06:44;;;;;;;11.03;2.70;;;9.40;74.70;;;;;;5013352;28;20240;-87
2022/04/08 01:09:10;;;;;;;5.33;2.27;;;9.50;74.20;;;;;;5023150;28;20212;-87
2022/04/08 01:11:40;;;;;;;6.77;2.13;;;9.40;74.90;;;;;;5005858;28;20205;-87
2022/04/08 01:14:10;;;;;;;6.90;2.03;;;9.50;73.30;;;;;;5030601;28;20185;-87
2022/04/08 01:16:36;;;;;;;5.63;2.30;;;9.50;72.80;;;;;;5027526;28;20740;-87
2022/04/08 01:19:02;;;;;;;7.40;2.40;;;9.50;72.80;;;;;;5026434;28;20282;-87
2022/04/08 01:21:28;;;;;;;6.60;2.30;;;9.40;73.70;;;;;;5025752;28;20185;-87
2022/04/08 01:23:56;;;;;;;7.00;2.03;;;9.40;74.20;;;;;;5022472;28;20189;-87
2022/04/08 01:26:22;;;;;;;5.43;2.03;;;9.40;73.90;;;;;;5008286;28;20193;-87
2022/04/08 01:28:48;;;;;;;5.93;2.33;;;9.50;73.50;;;;;;5021700;28;20233;-87
2022/04/08 01:31:15;;;;;;;4.27;2.17;;;9.40;74.60;;;;;;5022496;28;20198;-88
2022/04/08 01:33:41;;;;;;;4.17;2.10;;;9.40;74.90;;;;;;5013953;28;20613;-88
2022/04/08 01:36:07;;;;;;;4.37;2.30;;;9.40;75.00;;;;;;5015797;28;20641;-88
2022/04/08 01:38:33;;;;;;;3.20;1.83;;;9.50;73.60;;;;;;5027092;28;20240;-88
2022/04/08 01:40:59;;;;;;;3.87;2.10;;;9.40;73.40;;;;;;5026171;28;20273;-88
2022/04/08 01:43:24;;;;;;;5.30;2.17;;;9.40;73.50;;;;;;5021704;28;20236;-87
2022/04/08 01:45:50;;;;;;;4.33;2.10;;;9.50;73.40;;;;;;5013134;28;20219;-87
2022/04/08 01:48:16;;;;;;;5.53;2.00;;;9.50;74.00;;;;;;5005154;28;20242;-87
2022/04/08 01:50:41;;;;;;;5.67;2.07;;;9.50;73.30;;;;;;5021456;28;20316;-88
2022/04/08 01:53:07;;;;;;;7.17;1.90;;;9.40;74.60;;;;;;5020155;28;20198;-87
2022/04/08 01:55:33;;;;;;;4.73;2.07;;;9.40;73.80;;;;;;5014970;28;20201;-87
2022/04/08 01:57:59;;;;;;;4.90;2.10;;;9.30;74.50;;;;;;5023848;28;20206;-87
2022/04/08 02:00:24;;;;;;;9.50;2.10;;;9.30;75.20;;;;;;5023087;28;20216;-87
2022/04/08 02:02:50;;;;;;;5.70;2.20;;;9.40;75.10;;;;;;5026358;28;20185;-87
2022/04/08 02:05:16;;;;;;;4.90;2.00;;;9.40;73.10;;;;;;5016857;28;20201;-88
2022/04/08 02:07:42;;;;;;;6.60;2.13;;;9.20;74.90;;;;;;5022745;28;20214;-88
2022/04/08 02:10:08;;;;;;;4.40;1.90;;;9.20;74.10;;;;;;5017985;28;20194;-88
2022/04/08 02:12:33;;;;;;;6.47;2.10;;;9.30;72.50;;;;;;5015889;28;20194;-88
2022/04/08 02:14:59;;;;;;;3.37;2.00;;;9.20;74.60;;;;;;5013458;28;20194;-87
2022/04/08 02:17:25;;;;;;;9.43;2.63;;;9.10;75.90;;;;;;5018553;28;20201;-87
2022/04/08 02:19:54;;;;;;;6.30;2.03;;;9.10;75.90;;;;;;5026422;28;20240;-87
2022/04/08 02:22:21;;;;;;;4.27;2.70;;;9.20;74.80;;;;;;5023129;28;20193;-87
2022/04/08 02:24:49;;;;;;;5.60;2.10;;;9.20;74.90;;;;;;5024910;28;20182;-87
2022/04/08 02:27:14;;;;;;;4.20;1.80;;;9.10;75.00;;;;;;5022484;28;20205;-87
2022/04/08 02:29:40;;;;;;;4.07;2.03;;;9.10;75.30;;;;;;5016516;28;20229;-88
2022/04/08 02:32:06;;;;;;;4.03;2.07;;;9.20;74.20;;;;;;5016369;28;20206;-87
2022/04/08 02:34:36;;;;;;;4.73;2.20;;;9.20;74.30;;;;;;5019357;28;20202;-87
2022/04/08 02:37:03;;;;;;;7.27;2.30;;;9.10;74.40;;;;;;5023713;28;20201;-87
2022/04/08 02:39:29;;;;;;;5.20;1.97;;;9.20;73.20;;;;;;5009953;28;20209;-87
2022/04/08 02:41:54;;;;;;;6.57;2.20;;;9.10;73.90;;;;;;5006305;28;20190;-87
2022/04/08 02:44:20;;;;;;;5.33;1.97;;;9.20;74.10;;;;;;5026209;28;20208;-89
2022/04/08 02:46:46;;;;;;;6.80;2.10;;;9.10;74.90;;;;;;5024933;28;20245;-89
2022/04/08 02:49:11;;;;;;;4.63;1.93;;;9.20;74.50;;;;;;5024649;28;20194;-88
2022/04/08 02:51:37;;;;;;;4.70;2.47;;;9.20;74.60;;;;;;5029700;28;20279;-88
2022/04/08 02:54:03;;;;;;;4.40;2.10;;;9.00;75.50;;;;;;5020654;28;20178;-87
2022/04/08 02:56:28;;;;;;;4.53;2.10;;;9.10;75.40;;;;;;5021483;28;20221;-87
2022/04/08 02:58:57;;;;;;;6.43;2.20;;;9.00;76.90;;;;;;5019151;28;20218;-88
2022/04/08 03:01:23;;;;;;;5.37;2.60;;;9.00;74.40;;;;;;5019443;28;20216;-88
2022/04/08 03:03:48;;;;;;;3.77;2.07;;;9.00;75.10;;;;;;5010884;28;20186;-87
2022/04/08 03:06:14;;;;;;;5.40;2.00;;;8.90;74.80;;;;;;5011330;28;20189;-87
2022/04/08 03:08:40;;;;;;;5.40;2.10;;;8.90;74.30;;;;;;5015932;28;20879;-87
2022/04/08 03:11:06;;;;;;;6.03;2.17;;;9.00;74.50;;;;;;5037322;28;20208;-88
2022/04/08 03:13:32;;;;;;;4.63;2.10;;;8.90;73.70;;;;;;5041559;28;20192;-87
2022/04/08 03:15:58;;;;;;;6.27;2.30;;;8.90;73.50;;;;;;5012813;28;20213;-88
2022/04/08 03:18:23;;;;;;;4.37;2.17;;;8.90;74.00;;;;;;5009970;28;20225;-87
2022/04/08 03:20:49;;;;;;;4.53;2.00;;;8.80;74.00;;;;;;5014798;28;20276;-87
2022/04/08 03:23:15;;;;;;;5.67;2.03;;;8.90;73.70;;;;;;5013462;28;20208;-88
2022/04/08 03:25:41;;;;;;;7.17;2.27;;;8.70;74.40;;;;;;5010340;28;20213;-88
2022/04/08 03:28:09;;;;;;;8.00;2.70;;;8.70;73.10;;;;;;5003779;28;20209;-87
2022/04/08 03:30:35;;;;;;;6.87;2.00;;;8.80;73.30;;;;;;5022667;28;20275;-87
2022/04/08 03:33:00;;;;;;;5.00;2.33;;;8.60;73.00;;;;;;5023142;28;20174;-87
2022/04/08 03:35:26;;;;;;;3.90;2.27;;;8.60;74.30;;;;;;5022198;28;20186;-87
2022/04/08 03:37:52;;;;;;;4.87;2.30;;;8.60;74.40;;;;;;5014149;28;20213;-87
2022/04/08 03:40:18;;;;;;;4.93;2.13;;;8.60;71.40;;;;;;5008158;28;20214;-87
2022/04/08 03:42:43;;;;;;;9.07;2.50;;;8.70;72.00;;;;;;5020520;28;20224;-87
2022/04/08 03:45:10;;;;;;;5.53;2.23;;;8.70;72.90;;;;;;5012924;28;20241;-87
2022/04/08 03:47:35;;;;;;;5.27;2.30;;;8.60;72.60;;;;;;5023668;28;20209;-87
2022/04/08 03:50:01;;;;;;;5.30;2.30;;;8.60;72.60;;;;;;5027244;28;20181;-87
2022/04/08 03:52:32;;;;;;;7.23;2.00;;;8.80;71.00;;;;;;5020007;28;20207;-87
2022/04/08 03:54:58;;;;;;;5.67;2.50;;;8.70;73.20;;;;;;5019692;28;20197;-87
2022/04/08 03:57:23;;;;;;;5.43;2.10;;;8.70;72.20;;;;;;5015891;28;20194;-87
2022/04/08 03:59:49;;;;;;;5.50;2.10;;;8.70;72.30;;;;;;5009159;28;20210;-88
2022/04/08 04:02:15;;;;;;;4.20;2.10;;;8.70;72.50;;;;;;5001823;28;20181;-86
2022/04/08 04:04:41;;;;;;;6.63;2.43;;;8.60;72.90;;;;;;5019484;28;20225;-86
2022/04/08 04:07:07;;;;;;;5.83;2.37;;;8.70;72.10;;;;;;5021093;28;20189;-86
2022/04/08 04:09:32;;;;;;;3.93;2.07;;;8.80;72.10;;;;;;5024678;28;20209;-89
2022/04/08 04:11:58;;;;;;;5.27;2.10;;;8.70;73.30;;;;;;5013380;28;20202;-86
2022/04/08 04:14:24;;;;;;;7.87;2.53;;;8.50;74.00;;;;;;5024884;28;20217;-86
2022/04/08 04:16:49;;;;;;;4.13;1.87;;;8.50;74.10;;;;;;5026773;28;20433;-87
2022/04/08 04:19:16;;;;;;;6.30;2.13;;;8.60;72.70;;;;;;5020163;28;20230;-87
2022/04/08 04:21:42;;;;;;;5.67;2.47;;;8.60;73.70;;;;;;5016550;28;20771;-88
2022/04/08 04:24:08;;;;;;;6.10;2.60;;;8.60;72.90;;;;;;5025034;28;20169;-86
2022/04/08 04:26:34;;;;;;;5.33;2.20;;;8.80;71.50;;;;;;5019592;28;20193;-87
2022/04/08 04:29:00;;;;;;;3.13;2.20;;;8.80;71.50;;;;;;5016038;28;20671;-85
2022/04/08 04:31:26;;;;;;;4.00;2.07;;;8.70;72.10;;;;;;5011154;28;20742;-85
2022/04/08 04:33:52;;;;;;;6.30;2.40;;;8.70;73.00;;;;;;5010207;28;20197;-85
2022/04/08 04:36:17;;;;;;;6.90;2.40;;;8.70;72.50;;;;;;5015749;28;20189;-86
2022/04/08 04:38:43;;;;;;;4.70;1.83;;;8.80;72.30;;;;;;5008581;28;20281;-86
2022/04/08 04:41:09;;;;;;;5.33;1.90;;;8.70;73.10;;;;;;5015187;28;20220;-85
2022/04/08 04:43:36;;;;;;;5.70;2.27;;;8.60;73.60;;;;;;5015232;28;20245;-87
2022/04/08 04:46:03;;;;;;;8.60;2.33;;;8.70;73.20;;;;;;5016433;28;20668;-86
2022/04/08 04:48:30;;;;;;;7.30;2.40;;;8.80;72.50;;;;;;5017895;28;20244;-85
2022/04/08 04:50:56;;;;;;;4.77;2.27;;;8.70;73.40;;;;;;5018611;28;20221;-85
2022/04/08 04:53:23;;;;;;;9.23;2.40;;;8.60;73.50;;;;;;5017472;28;20194;-85
2022/04/08 04:55:48;;;;;;;8.10;2.63;;;8.60;73.70;;;;;;5018386;28;20198;-85
2022/04/08 04:58:14;;;;;;;2.90;1.93;;;8.70;74.00;;;;;;5018986;28;20254;-85
2022/04/08 05:00:40;;;;;;;3.63;2.03;;;8.70;73.80;;;;;;5022125;28;20178;-86
2022/04/08 05:03:08;;;;;;;7.67;2.30;;;8.80;73.20;;;;;;5028471;28;20181;-85
2022/04/08 05:05:34;;;;;;;4.33;2.20;;;8.80;73.40;;;;;;5029654;28;20257;-86
2022/04/08 05:08:03;;;;;;;5.93;2.60;;;8.90;72.30;;;;;;5024956;28;20212;-86
2022/04/08 05:10:30;;;;;;;7.03;2.50;;;8.90;73.30;;;;;;5020644;28;20296;-86
2022/04/08 05:12:55;;;;;;;6.90;2.50;;;8.90;73.70;;;;;;5020408;28;20217;-86
2022/04/08 05:15:21;;;;;;;5.77;2.20;;;8.80;74.90;;;;;;5031167;28;20907;-86
2022/04/08 05:17:47;;;;;;;4.63;2.17;;;8.80;74.10;;;;;;5004893;28;20253;-86
2022/04/08 05:20:13;;;;;;;5.70;2.60;;;8.90;74.60;;;;;;5022957;28;20210;-86
2022/04/08 05:22:41;;;;;;;4.23;2.17;;;8.90;74.60;;;;;;5024685;28;20189;-88
2022/04/08 05:25:07;;;;;;;6.90;2.60;;;8.90;75.10;;;;;;5021440;28;20181;-86
2022/04/08 05:27:41;;;;;;;5.30;2.30;;;8.70;76.10;;;;;;5024655;28;20225;-86
2022/04/08 05:30:12;;;;;;;6.53;2.60;;;8.70;76.20;;;;;;5015571;28;20310;-86
2022/04/08 05:32:42;;;;;;;5.83;2.43;;;8.80;76.10;;;;;;5023397;28;20251;-86
2022/04/08 05:35:08;;;;;;;5.27;2.10;;;8.80;76.80;;;;;;5033712;28;20341;-86
2022/04/08 05:37:44;;;;;;;5.67;3.00;;;8.60;78.20;;;;;;5020157;28;20217;-86
2022/04/08 05:40:16;;;;;;;6.10;2.47;;;8.70;76.90;;;;;;5020540;28;20223;-86
2022/04/08 05:42:44;;;;;;;5.33;2.10;;;8.80;76.70;;;;;;5022637;28;20595;-86
2022/04/08 05:45:11;;;;;;;7.57;2.77;;;8.90;75.70;;;;;;5013769;28;20202;-87
2022/04/08 05:47:38;;;;;;;8.90;2.57;;;8.90;75.30;;;;;;5007227;28;20202;-85
2022/04/08 05:50:04;;;;;;;6.43;2.30;;;8.80;75.80;;;;;;5020985;28;20177;-86
2022/04/08 05:52:30;;;;;;;4.00;1.97;;;8.80;75.40;;;;;;5017587;28;20595;-86
2022/04/08 05:54:56;;;;;;;4.57;2.37;;;8.90;75.40;;;;;;5011801;28;20255;-86
2022/04/08 05:57:23;;;;;;;5.30;2.13;;;8.90;76.40;;;;;;5008128;28;20281;-86
2022/04/08 05:59:49;;;;;;;7.17;2.20;;;8.90;76.70;;;;;;5039578;28;20220;-86
2022/04/08 06:02:16;;;;;;;5.83;2.40;;;8.90;76.40;;;;;;5045407;28;20718;-86
2022/04/08 06:04:42;;;;;;;6.00;2.30;;;8.90;75.70;;;;;;5013751;28;20277;-86
2022/04/08 06:07:08;;;;;;;5.40;2.60;;;8.90;74.80;;;;;;5012755;28;20436;-87
2022/04/08 06:09:34;;;;;;;8.43;2.17;;;9.00;74.40;;;;;;5023936;28;20240;-88
2022/04/08 06:12:00;;;;;;;6.97;2.30;;;9.00;73.00;;;;;;5012971;28;20261;-88
2022/04/08 06:14:26;;;;;;;5.10;2.20;;;8.90;72.60;;;;;;5013646;28;20198;-88
2022/04/08 06:16:53;;;;;;;5.77;2.27;;;9.10;71.50;;;;;;5006816;28;20190;-86
2022/04/08 06:19:18;;;;;;;6.20;1.97;;;9.10;71.60;;;;;;5005068;28;20495;-87
2022/04/08 06:21:44;;;;;;;4.20;2.03;;;9.10;71.30;;;;;;5015011;28;20190;-86
2022/04/08 06:24:10;;;;;;;4.40;2.10;;;9.10;71.70;;;;;;5019669;28;20186;-87
2022/04/08 06:26:36;;;;;;;6.37;2.00;;;8.90;72.00;;;;;;5019059;28;20185;-87
2022/04/08 06:29:04;;;;;;;3.27;2.10;;;8.70;72.20;;;;;;5018987;28;20217;-86
2022/04/08 06:31:31;;;;;;;3.80;2.00;;;8.60;73.20;;;;;;5014908;28;20273;-86
2022/04/08 06:33:58;;;;;;;5.57;1.80;;;8.60;71.90;;;;;;5013870;28;20190;-86
2022/04/08 06:36:25;;;;;;;4.23;1.93;;;8.50;74.20;;;;;;5023728;28;20181;-86
2022/04/08 06:38:51;;;;;;;3.73;1.67;;;8.50;72.80;;;;;;5011522;28;20282;-88
2022/04/08 06:41:17;;;;;;;1.90;1.60;;;8.50;72.20;;;;;;5013493;28;20220;-86
2022/04/08 06:43:43;;;;;;;7.43;1.90;;;8.50;72.40;;;;;;5005347;28;20268;-86
2022/04/08 06:46:08;;;;;;;4.50;1.77;;;8.50;72.30;;;;;;5012065;28;20712;-87
2022/04/08 06:48:34;;;;;;;2.13;1.70;;;8.50;72.90;;;;;;5021436;28;20209;-87
2022/04/08 06:51:04;;;;;;;3.10;1.90;;;8.50;74.60;;;;;;5023540;28;20209;-86
2022/04/08 06:53:30;;;;;;;5.23;2.03;;;8.40;74.30;;;;;;5017690;28;20650;-86
2022/04/08 06:55:56;;;;;;;2.73;1.57;;;8.30;77.50;;;;;;5021253;28;20293;-87
2022/04/08 06:58:26;;;;;;;3.43;1.90;;;8.30;77.60;;;;;;5012684;28;20579;-88
2022/04/08 07:00:52;;;;;;;3.57;1.73;;;8.20;76.50;;;;;;5011146;28;20270;-87
2022/04/08 07:03:18;;;;;;;1.87;1.40;;;8.20;77.10;;;;;;5025914;28;20189;-86
2022/04/08 07:05:44;;;;;;;4.13;2.20;;;8.10;77.30;;;;;;5025736;28;20581;-87
2022/04/08 07:08:10;;;;;;;5.80;1.80;;;8.10;79.30;;;;;;5022673;28;20210;-86
2022/04/08 07:10:38;;;;;;;6.27;1.73;;;8.10;81.60;;;;;;5016034;28;20205;-88
2022/04/08 07:13:05;;;;;;;3.00;1.63;;;8.10;83.80;;;;;;5018903;28;20228;-88
2022/04/08 07:15:30;;;;;;;4.87;1.90;;;8.10;81.60;;;;;;5010218;28;20182;-87
2022/04/08 07:17:56;;;;;;;2.53;1.73;;;8.10;81.30;;;;;;5012435;28;20229;-86
2022/04/08 07:20:22;;;;;;;3.07;1.90;;;8.10;84.90;;;;;;5017523;28;20218;-86
2022/04/08 07:22:48;;;;;;;3.63;1.97;;;8.00;84.00;;;;;;5014387;28;20247;-87
2022/04/08 07:25:15;;;;;;;3.73;1.83;;;7.90;88.60;;;;;;5017854;28;20228;-86
2022/04/08 07:27:49;;;;;;;2.17;1.93;;;8.00;89.80;;;;;;5012358;28;20202;-87
2022/04/08 07:30:18;;;;;;;2.50;1.80;;;7.90;91.60;;;;;;5003728;28;20178;-86
2022/04/08 07:32:46;;;;;;;4.07;2.07;;;7.90;94.50;;;;;;5013339;28;20228;-86
2022/04/08 07:35:12;;;;;;;2.67;1.60;;;7.80;97.20;;;;;;5024641;28;20197;-86
2022/04/08 07:37:38;;;;;;;4.37;1.93;;;7.60;99.90;;;;;;5012652;28;20209;-86
2022/04/08 07:40:09;;;;;;;7.20;2.43;;;7.60;99.90;;;;;;5022814;28;20232;-86
2022/04/08 07:42:35;;;;;;;5.10;2.10;;;7.50;99.90;;;;;;5023963;28;20181;-87
2022/04/08 07:45:02;;;;;;;3.20;2.07;;;7.50;99.90;;;;;;5020310;28;20186;-87
2022/04/08 07:47:28;;;;;;;3.27;1.80;;;7.50;99.90;;;;;;5015293;28;20190;-86
2022/04/08 07:50:02;;;;;;;3.60;2.07;;;7.50;99.90;;;;;;5008450;28;20257;-87
2022/04/08 07:52:28;;;;;;;7.13;2.40;;;7.50;99.90;;;;;;5011375;28;20196;-87
2022/04/08 07:54:55;;;;;;;4.17;2.13;;;7.40;99.90;;;;;;5024438;28;20256;-86
2022/04/08 07:57:21;;;;;;;5.53;2.10;;;7.40;99.90;;;;;;5015619;28;20220;-86
2022/04/08 07:59:47;;;;;;;3.63;2.00;;;7.40;99.90;;;;;;5022897;28;20209;-87
2022/04/08 08:02:13;;;;;;;5.93;2.30;;;7.40;99.90;;;;;;5006969;28;20261;-86
2022/04/08 08:04:39;;;;;;;5.93;2.20;;;7.40;99.90;;;;;;5024480;28;20217;-86
2022/04/08 08:07:06;;;;;;;3.63;2.30;;;7.50;99.90;;;;;;5020180;28;20186;-88
2022/04/08 08:09:33;;;;;;;5.20;2.10;;;7.50;99.90;;;;;;5004673;28;20725;-87
2022/04/08 08:12:02;;;;;;;4.03;2.23;;;7.40;99.90;;;;;;5018235;28;20273;-87
2022/04/08 08:14:29;;;;;;;7.67;2.33;;;7.40;99.90;;;;;;5014476;28;20198;-87
2022/04/08 08:16:55;;;;;;;8.53;2.80;;;7.60;99.90;;;;;;5021529;28;20276;-87
2022/04/08 08:19:20;;;;;;;3.17;2.00;;;7.60;99.90;;;;;;5010711;28;20249;-87
2022/04/08 08:21:46;;;;;;;3.33;2.33;;;7.60;99.90;;;;;;5018115;28;20285;-87
2022/04/08 08:24:12;;;;;;;4.73;2.23;;;7.70;99.90;;;;;;5008936;28;20185;-87
2022/04/08 08:26:38;;;;;;;3.70;2.10;;;7.50;99.90;;;;;;5005436;28;20793;-88
2022/04/08 08:29:04;;;;;;;3.43;2.00;;;7.50;99.90;;;;;;5011693;28;20240;-86
2022/04/08 08:31:30;;;;;;;6.17;2.17;;;7.50;99.90;;;;;;5015564;28;20193;-86
2022/04/08 08:33:56;;;;;;;3.20;1.97;;;7.50;99.90;;;;;;5017358;28;20189;-87
2022/04/08 08:36:22;;;;;;;7.00;2.70;;;7.50;99.90;;;;;;5010771;28;20197;-87
2022/04/08 08:38:49;;;;;;;5.57;2.03;;;7.60;99.90;;;;;;5018092;28;20230;-87
2022/04/08 08:41:19;;;;;;;4.20;2.20;;;7.60;99.90;;;;;;5005809;28;20182;-87
2022/04/08 08:43:47;;;;;;;2.80;2.00;;;7.70;99.90;;;;;;5010116;28;20186;-88
2022/04/08 08:46:15;;;;;;;4.40;2.53;;;7.70;99.90;;;;;;5019790;28;20189;-87
2022/04/08 08:48:44;;;;;;;4.33;2.33;;;7.70;99.90;;;;;;5022921;28;20300;-87
2022/04/08 08:51:11;;;;;;;3.90;2.00;;;7.50;99.90;;;;;;5035473;28;20183;-87
2022/04/08 08:53:37;;;;;;;2.20;1.90;;;7.50;99.90;;;;;;5027444;28;20189;-86
2022/04/08 08:56:06;;;;;;;2.43;2.17;;;7.60;99.90;;;;;;5024618;28;20195;-87
2022/04/08 08:58:34;;;;;;;4.70;2.03;;;7.70;99.90;;;;;;5022249;28;20719;-88
2022/04/08 09:01:00;;;;;;;3.37;1.70;;;7.60;99.90;;;;;;5023657;28;20197;-87
2022/04/08 09:03:29;;;;;;;3.60;2.20;;;7.60;99.90;;;;;;5018199;28;20189;-88
2022/04/08 09:06:04;;;;;;;2.80;1.67;;;7.70;99.90;;;;;;5016269;28;20182;-87
2022/04/08 09:08:36;;;;;;;2.73;1.60;;;7.70;99.90;;;;;;5001514;28;20202;-87
2022/04/08 09:11:03;;;;;;;2.97;1.67;;;7.60;99.90;;;;;;5002155;28;20205;-87
2022/04/08 09:13:29;;;;;;;3.73;1.63;;;7.70;99.90;;;;;;4987607;28;20182;-87
2022/04/08 09:16:01;;;;;;;1.73;1.60;;;7.70;99.90;;;;;;5013538;28;20185;-87
2022/04/08 09:18:32;;;;;;;3.33;1.90;;;7.70;99.90;;;;;;5021674;28;20217;-87
2022/04/08 09:20:58;;;;;;;3.57;1.60;;;7.80;99.90;;;;;;5017115;28;20251;-87
2022/04/08 09:23:24;;;;;;;3.63;1.90;;;7.70;99.90;;;;;;5017597;28;20349;-87
2022/04/08 09:26:00;;;;;;;2.63;2.00;;;7.70;99.90;;;;;;4996964;28;20185;-88
2022/04/08 09:28:33;;;;;;;4.10;2.20;;;7.70;99.90;;;;;;5013624;28;20209;-87
2022/04/08 09:31:01;;;;;;;5.00;2.10;;;7.80;99.90;;;;;;5012804;28;20290;-87
2022/04/08 09:33:27;;;;;;;1.40;1.30;;;7.80;99.90;;;;;;5019517;28;20217;-87
2022/04/08 09:35:54;;;;;;;2.60;1.70;;;7.90;99.90;;;;;;5016058;28;20189;-87
2022/04/08 09:38:22;;;;;;;3.37;1.53;;;7.90;99.90;;;;;;5018263;28;20201;-88
2022/04/08 09:40:49;;;;;;;2.10;1.57;;;8.00;99.90;;;;;;5018347;28;20194;-87
2022/04/08 09:43:16;;;;;;;3.27;1.67;;;8.00;99.90;;;;;;5018424;28;20281;-87
2022/04/08 09:45:42;;;;;;;4.87;1.63;;;8.30;99.90;;;;;;5022408;28;20185;-87
2022/04/08 09:48:08;;;;;;;2.30;1.50;;;8.30;99.90;;;;;;5019008;28;20232;-87
2022/04/08 09:50:37;;;;;;;2.77;1.60;;;8.30;99.90;;;;;;5021720;28;20358;-86
2022/04/08 09:53:04;;;;;;;2.53;1.57;;;8.10;99.90;;;;;;5015828;28;20670;-86
2022/04/08 09:55:30;;;;;;;2.17;1.63;;;8.30;99.90;;;;;;5018635;28;20192;-87
2022/04/08 09:57:59;;;;;;;2.93;1.70;;;8.50;99.90;;;;;;5020428;28;20248;-87
2022/04/08 10:00:27;;;;;;;2.53;1.77;;;8.50;99.90;;;;;;5023914;28;20653;-87
2022/04/08 10:02:55;;;;;;;2.17;1.60;;;8.60;99.90;;;;;;5026144;28;20193;-86
2022/04/08 10:05:22;;;;;;;2.83;1.60;;;8.50;99.90;;;;;;5031306;28;20238;-86
2022/04/08 10:07:51;;;;;;;2.67;1.30;;;8.60;99.90;;;;;;5032007;28;20277;-87
2022/04/08 10:10:24;;;;;;;1.70;1.60;;;8.60;99.90;;;;;;5023577;28;20218;-87
2022/04/08 10:13:09;;;;;;;4.17;1.90;;;8.50;99.90;;;;;;5017169;28;20664;-87
2022/04/08 10:15:43;;;;;;;2.70;1.77;;;8.40;99.90;;;;;;5018780;28;20601;-86
2022/04/08 10:18:10;;;;;;;2.93;1.87;;;8.20;99.90;;;;;;5019633;28;20221;-87
2022/04/08 10:20:37;;;;;;;2.27;1.90;;;8.00;99.90;;;;;;5023548;28;20206;-87
2022/04/08 10:23:09;;;;;;;3.77;2.10;;;8.00;99.90;;;;;;5020896;28;20181;-87
2022/04/08 10:25:35;;;;;;;2.53;2.27;;;8.00;99.90;;;;;;5025428;28;20629;-87
2022/04/08 10:28:01;;;;;;;2.80;2.30;;;8.10;99.90;;;;;;5025169;28;20213;-87
2022/04/08 10:30:27;;;;;;;2.10;1.73;;;7.90;99.90;;;;;;5023638;28;20217;-87
2022/04/08 10:33:04;;;;;;;4.77;1.90;;;8.00;99.90;;;;;;5024499;28;20257;-87
2022/04/08 10:35:30;;;;;;;1.73;1.37;;;8.20;99.90;;;;;;5022567;28;20220;-87
2022/04/08 10:38:00;;;;;;;1.90;1.63;;;8.30;99.90;;;;;;5018167;28;20233;-87
2022/04/08 10:40:39;;;;;;;2.70;1.60;;;8.40;99.90;;;;;;5019367;28;20212;-86
2022/04/08 10:43:10;;;;;;;1.23;1.23;;;8.50;99.90;;;;;;5022060;28;20237;-87
2022/04/08 10:45:36;;;;;;;2.60;1.30;;;8.50;99.90;;;;;;5017364;28;20280;-87
2022/04/08 10:48:32;;;;;;;1.83;1.73;;;8.60;99.90;;;;;;5014814;28;20221;-87
2022/04/08 10:51:11;;;;;;;1.20;1.10;;;8.40;99.90;;;;;;5019631;28;20236;-87
2022/04/08 10:53:41;;;;;;;1.83;1.73;;;8.30;99.90;;;;;;5023978;28;20185;-87
2022/04/08 10:56:12;;;;;;;2.13;1.50;;;8.40;99.90;;;;;;5018898;28;20191;-87
2022/04/08 10:58:46;;;;;;;2.23;1.50;;;8.40;99.90;;;;;;5017102;28;20213;-87
2022/04/08 11:01:17;;;;;;;1.50;1.40;;;8.60;99.90;;;;;;5021317;28;20194;-87
2022/04/08 11:03:46;;;;;;;2.27;1.90;;;8.60;99.90;;;;;;5024037;28;20194;-87
2022/04/08 11:06:19;;;;;;;5.23;4.60;;;8.60;99.90;;;;;;5002795;28;20261;-87
2022/04/08 11:08:45;;;;;;;1.60;1.50;;;8.70;99.90;;;;;;5018022;28;20217;-86
2022/04/08 11:11:11;;;;;;;2.57;1.80;;;8.60;99.90;;;;;;5019013;28;20204;-87
2022/04/08 11:13:40;;;;;;;1.90;1.80;;;8.70;99.90;;;;;;5018402;28;20177;-86
2022/04/08 11:16:07;;;;;;;1.93;1.73;;;8.80;99.90;;;;;;5020413;28;20200;-87
2022/04/08 11:18:33;;;;;;;1.60;1.30;;;8.90;99.90;;;;;;5021636;28;20218;-87
2022/04/08 11:20:58;;;;;;;2.83;2.63;;;8.80;99.90;;;;;;5015422;28;20188;-87
2022/04/08 11:23:29;;;;;;;2.57;2.37;;;8.70;99.90;;;;;;5015864;28;20209;-87
2022/04/08 11:25:55;;;;;;;2.17;2.07;;;8.70;99.90;;;;;;5019847;28;20245;-87
2022/04/08 11:28:25;;;;;;;1.87;1.77;;;8.70;99.90;;;;;;5026241;28;20217;-87
2022/04/08 11:30:58;;;;;;;2.30;2.10;;;8.80;99.90;;;;;;5020970;28;20190;-87
2022/04/08 11:33:25;;;;;;;2.70;1.50;;;9.00;99.90;;;;;;5021128;28;20197;-86
2022/04/08 11:36:00;;;;;;;3.40;2.10;;;8.90;99.90;;;;;;5018413;28;20190;-86
2022/04/08 11:38:28;;;;;;;2.67;2.00;;;8.70;99.90;;;;;;5022658;28;20272;-88
2022/04/08 11:40:54;;;;;;;2.17;2.00;;;8.60;99.90;;;;;;5018180;28;20186;-88
2022/04/08 11:43:21;;;;;;;4.20;3.80;;;8.50;99.90;;;;;;5015557;28;20190;-88
2022/04/08 11:45:49;;;;;;;3.10;2.23;;;8.50;99.90;;;;;;5014955;28;20245;-88
2022/04/08 11:48:18;;;;;;;2.77;1.93;;;8.70;99.90;;;;;;5017485;28;20213;-88
2022/04/08 11:50:45;;;;;;;3.27;3.07;;;8.50;99.90;;;;;;5016483;28;20269;-88
2022/04/08 11:53:16;;;;;;;7.07;6.47;;;8.30;99.90;;;;;;5013869;28;20665;-87
2022/04/08 11:55:55;;;;;;;5.77;5.17;;;8.10;99.90;;;;;;5015138;28;20217;-87
2022/04/08 11:58:21;;;;;;;4.77;4.27;;;8.10;99.90;;;;;;5013998;28;20244;-88
2022/04/08 12:00:49;;;;;;;3.80;3.50;;;8.20;99.90;;;;;;5011759;28;20189;-88
2022/04/08 12:03:20;;;;;;;2.57;2.37;;;8.10;99.90;;;;;;5015781;28;20212;-88
2022/04/08 12:05:48;;;;;;;2.33;1.80;;;8.10;99.90;;;;;;5009696;28;20178;-88
2022/04/08 12:08:14;;;;;;;1.60;1.50;;;8.30;99.90;;;;;;5015454;28;20202;-88
2022/04/08 12:10:40;;;;;;;2.77;2.40;;;8.40;99.90;;;;;;5011342;28;20253;-88
2022/04/08 12:13:33;;;;;;;2.03;1.77;;;8.50;99.90;;;;;;5013278;28;20786;-88
2022/04/08 12:15:59;;;;;;;2.30;1.90;;;8.50;99.90;;;;;;5014863;28;20248;-88
2022/04/08 12:18:26;;;;;;;3.50;2.77;;;8.50;99.90;;;;;;5013876;28;20229;-88
2022/04/08 12:21:05;;;;;;;2.40;2.23;;;8.60;99.90;;;;;;4998262;28;20225;-88
2022/04/08 12:23:31;;;;;;;2.63;1.93;;;8.60;99.90;;;;;;5012179;28;20185;-88
2022/04/08 12:25:59;;;;;;;2.67;1.80;;;8.60;99.90;;;;;;5014214;28;20203;-88
2022/04/08 12:28:31;;;;;;;1.93;1.83;;;8.70;99.90;;;;;;5015715;28;20210;-88
2022/04/08 12:30:57;;;;;;;4.47;2.40;;;8.70;99.90;;;;;;5012246;28;20186;-88
2022/04/08 12:33:23;;;;;;;3.83;2.30;;;8.60;99.90;;;;;;5018374;28;20649;-87
2022/04/08 12:35:49;;;;;;;4.03;2.70;;;8.40;99.90;;;;;;5014117;28;20265;-87
2022/04/08 12:38:19;;;;;;;3.33;3.03;;;8.40;99.90;;;;;;5013319;28;20228;-88
2022/04/08 12:40:49;;;;;;;2.83;2.00;;;8.50;99.90;;;;;;5016439;28;20231;-88
2022/04/08 12:43:15;;;;;;;1.93;1.73;;;8.60;99.90;;;;;;5013015;28;20193;-88
2022/04/08 12:45:41;;;;;;;2.20;2.00;;;8.50;99.90;;;;;;5015146;28;20186;-87
2022/04/08 12:48:07;;;;;;;2.40;2.20;;;8.30;99.90;;;;;;5016314;28;20221;-87
2022/04/08 12:50:33;;;;;;;2.83;2.10;;;8.40;99.90;;;;;;5014118;28;20182;-87
2022/04/08 12:53:00;;;;;;;4.90;4.50;;;8.40;99.90;;;;;;5020475;28;20204;-88
2022/04/08 12:55:26;;;;;;;3.10;2.80;;;8.30;99.90;;;;;;5016319;28;20186;-87
2022/04/08 12:57:53;;;;;;;2.27;1.60;;;8.10;99.90;;;;;;5019168;28;20209;-88